sensor_id;sensor_type;location;lat;lon;timestamp;pressure;altitude;pressure_sealevel;temperature;humidity
34921;BME280;21128;50.016;20.002;2022-07-18T00:02:21;99825.86;;;14.74;62.61
34921;BME280;21128;50.016;20.002;2022-07-18T00:04:49;99824.47;;;14.70;62.58
34921;BME280;21128;50.016;20.002;2022-07-18T00:07:16;99824.92;;;14.66;63.25
34921;BME280;21128;50.016;20.002;2022-07-18T00:09:43;99822.69;;;14.61;62.99
34921;BME280;21128;50.016;20.002;2022-07-18T00:12:10;99822.16;;;14.57;63.28
34921;BME280;21128;50.016;20.002;2022-07-18T00:14:38;99822.98;;;14.58;62.89
34921;BME280;21128;50.016;20.002;2022-07-18T00:17:06;99816.19;;;14.55;63.67
34921;BME280;21128;50.016;20.002;2022-07-18T00:19:47;99818.41;;;14.50;63.97
34921;BME280;21128;50.016;20.002;2022-07-18T00:22:13;99819.78;;;14.45;63.45
34921;BME280;21128;50.016;20.002;2022-07-18T00:24:40;99832.61;;;14.40;64.16
34921;BME280;21128;50.016;20.002;2022-07-18T00:27:07;99828.03;;;14.32;63.96
34921;BME280;21128;50.016;20.002;2022-07-18T00:29:34;99829.72;;;14.23;64.69
34921;BME280;21128;50.016;20.002;2022-07-18T00:32:07;99830.95;;;14.19;64.17
34921;BME280;21128;50.016;20.002;2022-07-18T00:34:35;99828.75;;;14.15;64.58
34921;BME280;21128;50.016;20.002;2022-07-18T00:37:05;99839.33;;;14.15;64.61
34921;BME280;21128;50.016;20.002;2022-07-18T00:39:32;99831.39;;;14.15;65.07
34921;BME280;21128;50.016;20.002;2022-07-18T00:41:59;99830.71;;;14.13;64.66
34921;BME280;21128;50.016;20.002;2022-07-18T00:44:28;99829.84;;;14.12;65.05
34921;BME280;21128;50.016;20.002;2022-07-18T00:46:58;99829.99;;;14.11;64.68
34921;BME280;21128;50.016;20.002;2022-07-18T00:49:25;99831.12;;;14.08;64.62
34921;BME280;21128;50.016;20.002;2022-07-18T00:51:52;99830.43;;;14.06;65.26
34921;BME280;21128;50.016;20.002;2022-07-18T00:54:26;99840.42;;;14.02;65.17
34921;BME280;21128;50.016;20.002;2022-07-18T00:56:53;99831.13;;;13.98;65.40
34921;BME280;21128;50.016;20.002;2022-07-18T00:59:27;99827.80;;;13.96;65.51
34921;BME280;21128;50.016;20.002;2022-07-18T01:02:14;99828.89;;;13.94;65.73
34921;BME280;21128;50.016;20.002;2022-07-18T01:04:41;99824.44;;;13.94;65.76
34921;BME280;21128;50.016;20.002;2022-07-18T01:07:09;99829.61;;;13.96;65.95
34921;BME280;21128;50.016;20.002;2022-07-18T01:09:44;99823.45;;;13.95;66.00
34921;BME280;21128;50.016;20.002;2022-07-18T01:12:12;99812.05;;;13.95;66.32
34921;BME280;21128;50.016;20.002;2022-07-18T01:14:39;99815.42;;;13.97;66.62
34921;BME280;21128;50.016;20.002;2022-07-18T01:17:16;99810.13;;;13.97;66.10
34921;BME280;21128;50.016;20.002;2022-07-18T01:19:44;99803.87;;;13.98;65.78
34921;BME280;21128;50.016;20.002;2022-07-18T01:22:12;99808.17;;;13.99;66.44
34921;BME280;21128;50.016;20.002;2022-07-18T01:24:40;99800.10;;;14.00;65.68
34921;BME280;21128;50.016;20.002;2022-07-18T01:27:07;99804.41;;;14.01;65.55
34921;BME280;21128;50.016;20.002;2022-07-18T01:29:34;99799.81;;;14.03;65.21
34921;BME280;21128;50.016;20.002;2022-07-18T01:32:06;99791.88;;;14.03;65.46
34921;BME280;21128;50.016;20.002;2022-07-18T01:34:33;99798.00;;;14.04;65.40
34921;BME280;21128;50.016;20.002;2022-07-18T01:37:00;99799.70;;;14.05;65.70
34921;BME280;21128;50.016;20.002;2022-07-18T01:39:27;99795.09;;;14.07;65.23
34921;BME280;21128;50.016;20.002;2022-07-18T01:41:59;99791.48;;;14.08;65.05
34921;BME280;21128;50.016;20.002;2022-07-18T01:44:27;99788.69;;;14.09;65.25
34921;BME280;21128;50.016;20.002;2022-07-18T01:47:02;99786.88;;;14.10;65.08
34921;BME280;21128;50.016;20.002;2022-07-18T01:49:29;99788.69;;;14.09;65.24
34921;BME280;21128;50.016;20.002;2022-07-18T01:51:57;99786.19;;;14.08;64.92
34921;BME280;21128;50.016;20.002;2022-07-18T01:54:31;99785.77;;;14.03;65.29
34921;BME280;21128;50.016;20.002;2022-07-18T01:57:00;99796.63;;;14.00;65.15
34921;BME280;21128;50.016;20.002;2022-07-18T01:59:27;99792.88;;;13.93;64.97
34921;BME280;21128;50.016;20.002;2022-07-18T02:01:54;99788.43;;;13.84;65.56
34921;BME280;21128;50.016;20.002;2022-07-18T02:04:21;99796.22;;;13.75;65.75
34921;BME280;21128;50.016;20.002;2022-07-18T02:07:08;99791.08;;;13.64;66.08
34921;BME280;21128;50.016;20.002;2022-07-18T02:09:49;99793.29;;;13.59;65.96
34921;BME280;21128;50.016;20.002;2022-07-18T02:12:15;99793.58;;;13.56;66.65
34921;BME280;21128;50.016;20.002;2022-07-18T02:14:42;99787.72;;;13.52;66.41
34921;BME280;21128;50.016;20.002;2022-07-18T02:17:09;99784.53;;;13.49;66.73
34921;BME280;21128;50.016;20.002;2022-07-18T02:19:43;99783.12;;;13.45;67.10
34921;BME280;21128;50.016;20.002;2022-07-18T02:22:12;99779.80;;;13.43;66.97
34921;BME280;21128;50.016;20.002;2022-07-18T02:24:42;99777.58;;;13.38;67.68
34921;BME280;21128;50.016;20.002;2022-07-18T02:27:08;99778.67;;;13.36;67.67
34921;BME280;21128;50.016;20.002;2022-07-18T02:29:38;99782.57;;;13.32;68.01
34921;BME280;21128;50.016;20.002;2022-07-18T02:32:05;99781.88;;;13.30;68.84
34921;BME280;21128;50.016;20.002;2022-07-18T02:34:32;99793.41;;;13.29;68.18
34921;BME280;21128;50.016;20.002;2022-07-18T02:37:07;99789.50;;;13.23;68.14
34921;BME280;21128;50.016;20.002;2022-07-18T02:39:34;99797.67;;;13.20;68.74
34921;BME280;21128;50.016;20.002;2022-07-18T02:42:07;99797.08;;;13.16;68.52
34921;BME280;21128;50.016;20.002;2022-07-18T02:44:34;99801.67;;;13.14;69.03
34921;BME280;21128;50.016;20.002;2022-07-18T02:47:02;99800.00;;;13.13;69.09
34921;BME280;21128;50.016;20.002;2022-07-18T02:49:29;99804.70;;;13.10;69.48
34921;BME280;21128;50.016;20.002;2022-07-18T02:52:07;99800.67;;;13.06;69.79
34921;BME280;21128;50.016;20.002;2022-07-18T02:54:41;99795.92;;;13.00;69.74
34921;BME280;21128;50.016;20.002;2022-07-18T02:57:08;99793.81;;;12.93;69.99
34921;BME280;21128;50.016;20.002;2022-07-18T02:59:35;99797.84;;;12.88;69.62
34921;BME280;21128;50.016;20.002;2022-07-18T03:02:04;99793.78;;;12.84;70.76
34921;BME280;21128;50.016;20.002;2022-07-18T03:04:31;99799.48;;;12.79;71.13
34921;BME280;21128;50.016;20.002;2022-07-18T03:06:59;99799.48;;;12.79;70.72
34921;BME280;21128;50.016;20.002;2022-07-18T03:09:26;99799.48;;;12.79;71.65
34921;BME280;21128;50.016;20.002;2022-07-18T03:12:00;99795.73;;;12.82;71.50
34921;BME280;21128;50.016;20.002;2022-07-18T03:14:27;99802.67;;;12.83;71.79
34921;BME280;21128;50.016;20.002;2022-07-18T03:17:01;99806.97;;;12.84;72.94
34921;BME280;21128;50.016;20.002;2022-07-18T03:19:28;99809.47;;;12.85;72.87
34921;BME280;21128;50.016;20.002;2022-07-18T03:21:55;99803.64;;;12.82;72.70
34921;BME280;21128;50.016;20.002;2022-07-18T03:24:22;99810.13;;;12.78;73.17
34921;BME280;21128;50.016;20.002;2022-07-18T03:26:49;99810.41;;;12.75;72.35
34921;BME280;21128;50.016;20.002;2022-07-18T03:29:15;99814.57;;;12.77;73.21
34921;BME280;21128;50.016;20.002;2022-07-18T03:31:42;99818.05;;;12.78;73.50
34921;BME280;21128;50.016;20.002;2022-07-18T03:34:09;99820.68;;;12.78;73.29
34921;BME280;21128;50.016;20.002;2022-07-18T03:36:36;99827.06;;;12.75;74.66
34921;BME280;21128;50.016;20.002;2022-07-18T03:39:05;99820.40;;;12.71;74.50
34921;BME280;21128;50.016;20.002;2022-07-18T03:41:39;99819.25;;;12.64;74.62
34921;BME280;21128;50.016;20.002;2022-07-18T03:44:06;99828.13;;;12.63;75.10
34921;BME280;21128;50.016;20.002;2022-07-18T03:46:33;99823.93;;;12.60;75.36
34921;BME280;21128;50.016;20.002;2022-07-18T03:49:01;99826.56;;;12.60;76.53
34921;BME280;21128;50.016;20.002;2022-07-18T03:51:34;99828.27;;;12.61;76.24
34921;BME280;21128;50.016;20.002;2022-07-18T03:54:14;99823.93;;;12.60;76.17
34921;BME280;21128;50.016;20.002;2022-07-18T03:56:41;99837.02;;;12.62;76.26
34921;BME280;21128;50.016;20.002;2022-07-18T03:59:08;99831.73;;;12.62;76.59
34921;BME280;21128;50.016;20.002;2022-07-18T04:01:34;99829.20;;;12.60;77.00
34921;BME280;21128;50.016;20.002;2022-07-18T04:04:01;99834.48;;;12.60;76.74
34921;BME280;21128;50.016;20.002;2022-07-18T04:06:28;99835.59;;;12.58;77.39
34921;BME280;21128;50.016;20.002;2022-07-18T04:08:56;99841.69;;;12.58;77.28
34921;BME280;21128;50.016;20.002;2022-07-18T04:11:30;99837.84;;;12.62;78.26
34921;BME280;21128;50.016;20.002;2022-07-18T04:13:57;99835.77;;;12.66;79.01
34921;BME280;21128;50.016;20.002;2022-07-18T04:16:24;99838.02;;;12.71;78.01
34921;BME280;21128;50.016;20.002;2022-07-18T04:18:51;99845.39;;;12.77;77.52
34921;BME280;21128;50.016;20.002;2022-07-18T04:21:17;99839.59;;;12.83;77.55
34921;BME280;21128;50.016;20.002;2022-07-18T04:23:44;99851.44;;;12.88;77.77
34921;BME280;21128;50.016;20.002;2022-07-18T04:26:12;99851.85;;;12.93;77.71
34921;BME280;21128;50.016;20.002;2022-07-18T04:28:38;99857.30;;;13.02;77.27
34921;BME280;21128;50.016;20.002;2022-07-18T04:31:05;99845.95;;;13.11;76.99
34921;BME280;21128;50.016;20.002;2022-07-18T04:33:39;99847.70;;;13.21;76.55
34921;BME280;21128;50.016;20.002;2022-07-18T04:36:06;99849.53;;;13.31;76.59
34921;BME280;21128;50.016;20.002;2022-07-18T04:38:33;99859.53;;;13.37;75.91
34921;BME280;21128;50.016;20.002;2022-07-18T04:41:04;99864.97;;;13.45;76.24
34921;BME280;21128;50.016;20.002;2022-07-18T04:43:31;99858.18;;;13.52;75.55
34921;BME280;21128;50.016;20.002;2022-07-18T04:45:58;99860.28;;;13.58;75.52
34921;BME280;21128;50.016;20.002;2022-07-18T04:48:25;99862.94;;;13.68;75.09
34921;BME280;21128;50.016;20.002;2022-07-18T04:50:52;99856.69;;;13.78;75.17
34921;BME280;21128;50.016;20.002;2022-07-18T04:53:32;99861.31;;;13.96;74.30
34921;BME280;21128;50.016;20.002;2022-07-18T04:55:59;99855.87;;;14.07;74.03
34921;BME280;21128;50.016;20.002;2022-07-18T04:58:26;99853.77;;;14.20;73.71
34921;BME280;21128;50.016;20.002;2022-07-18T05:01:00;99862.11;;;14.35;73.11
34921;BME280;21128;50.016;20.002;2022-07-18T05:03:26;99852.38;;;14.45;73.35
34921;BME280;21128;50.016;20.002;2022-07-18T05:05:56;99841.66;;;14.56;71.92
34921;BME280;21128;50.016;20.002;2022-07-18T05:08:24;99843.28;;;14.67;71.41
34921;BME280;21128;50.016;20.002;2022-07-18T05:10:51;99845.36;;;14.73;70.26
34921;BME280;21128;50.016;20.002;2022-07-18T05:13:25;99843.10;;;14.78;70.55
34921;BME280;21128;50.016;20.002;2022-07-18T05:15:51;99836.67;;;14.90;69.60
34921;BME280;21128;50.016;20.002;2022-07-18T05:18:18;99844.72;;;14.99;69.33
34921;BME280;21128;50.016;20.002;2022-07-18T05:20:45;99838.55;;;15.08;69.27
34921;BME280;21128;50.016;20.002;2022-07-18T05:23:14;99836.88;;;15.07;68.53
34921;BME280;21128;50.016;20.002;2022-07-18T05:25:42;99831.17;;;15.02;68.49
34921;BME280;21128;50.016;20.002;2022-07-18T05:28:09;99833.52;;;15.05;68.36
34921;BME280;21128;50.016;20.002;2022-07-18T05:30:36;99841.77;;;15.02;68.11
34921;BME280;21128;50.016;20.002;2022-07-18T05:33:03;99832.69;;;15.04;68.32
34921;BME280;21128;50.016;20.002;2022-07-18T05:35:30;99834.91;;;15.09;68.40
34921;BME280;21128;50.016;20.002;2022-07-18T05:38:03;99836.15;;;15.14;67.77
34921;BME280;21128;50.016;20.002;2022-07-18T05:40:30;99826.61;;;15.21;67.62
34921;BME280;21128;50.016;20.002;2022-07-18T05:42:57;99828.09;;;15.34;67.70
34921;BME280;21128;50.016;20.002;2022-07-18T05:45:24;99831.66;;;15.42;66.86
34921;BME280;21128;50.016;20.002;2022-07-18T05:47:52;99826.85;;;15.56;66.98
34921;BME280;21128;50.016;20.002;2022-07-18T05:50:20;99826.19;;;15.71;66.42
34921;BME280;21128;50.016;20.002;2022-07-18T05:52:47;99813.09;;;15.88;66.46
34921;BME280;21128;50.016;20.002;2022-07-18T05:55:26;99817.16;;;16.18;66.51
34921;BME280;21128;50.016;20.002;2022-07-18T05:57:53;99823.09;;;16.38;65.18
34921;BME280;21128;50.016;20.002;2022-07-18T06:00:20;99823.36;;;16.52;64.81
34921;BME280;21128;50.016;20.002;2022-07-18T06:02:49;99818.48;;;16.66;64.39
34921;BME280;21128;50.016;20.002;2022-07-18T06:05:16;99825.58;;;16.83;64.83
34921;BME280;21128;50.016;20.002;2022-07-18T06:07:43;99812.68;;;16.96;63.03
34921;BME280;21128;50.016;20.002;2022-07-18T06:10:10;99825.29;;;16.94;63.17
34921;BME280;21128;50.016;20.002;2022-07-18T06:12:37;99819.69;;;17.05;63.23
34921;BME280;21128;50.016;20.002;2022-07-18T06:15:11;99822.05;;;17.08;61.86
34921;BME280;21128;50.016;20.002;2022-07-18T06:17:38;99815.73;;;17.09;62.08
34921;BME280;21128;50.016;20.002;2022-07-18T06:20:05;99823.70;;;17.09;62.42
34921;BME280;21128;50.016;20.002;2022-07-18T06:22:41;99821.05;;;17.09;61.99
34921;BME280;21128;50.016;20.002;2022-07-18T06:25:08;99810.48;;;17.26;61.96
34921;BME280;21128;50.016;20.002;2022-07-18T06:27:35;99820.16;;;17.43;61.59
34921;BME280;21128;50.016;20.002;2022-07-18T06:30:03;99818.02;;;17.55;60.75
34921;BME280;21128;50.016;20.002;2022-07-18T06:32:30;99831.66;;;17.60;59.94
34921;BME280;21128;50.016;20.002;2022-07-18T06:34:57;99824.98;;;17.56;58.93
34921;BME280;21128;50.016;20.002;2022-07-18T06:37:24;99826.33;;;17.52;59.10
34921;BME280;21128;50.016;20.002;2022-07-18T06:39:51;99830.49;;;17.62;58.91
34921;BME280;21128;50.016;20.002;2022-07-18T06:42:17;99826.88;;;17.71;59.32
34921;BME280;21128;50.016;20.002;2022-07-18T06:44:44;99819.75;;;17.80;59.27
34921;BME280;21128;50.016;20.002;2022-07-18T06:47:11;99819.93;;;17.87;58.31
34921;BME280;21128;50.016;20.002;2022-07-18T06:49:45;99816.94;;;17.98;58.35
34921;BME280;21128;50.016;20.002;2022-07-18T06:52:12;99817.77;;;18.07;58.74
34921;BME280;21128;50.016;20.002;2022-07-18T06:54:51;99811.13;;;18.27;57.71
34921;BME280;21128;50.016;20.002;2022-07-18T06:57:18;99814.07;;;18.48;58.59
34921;BME280;21128;50.016;20.002;2022-07-18T06:59:46;99805.08;;;18.66;57.71
34921;BME280;21128;50.016;20.002;2022-07-18T07:02:13;99803.20;;;18.82;57.10
34921;BME280;21128;50.016;20.002;2022-07-18T07:04:40;99804.89;;;18.83;56.13
34921;BME280;21128;50.016;20.002;2022-07-18T07:07:07;99808.02;;;18.87;56.35
34921;BME280;21128;50.016;20.002;2022-07-18T07:09:33;99821.34;;;18.87;55.33
34921;BME280;21128;50.016;20.002;2022-07-18T07:12:00;99818.34;;;18.82;54.98
34921;BME280;21128;50.016;20.002;2022-07-18T07:14:34;99821.34;;;18.87;55.45
34921;BME280;21128;50.016;20.002;2022-07-18T07:17:00;99826.46;;;18.97;54.66
34921;BME280;21128;50.016;20.002;2022-07-18T07:19:27;99811.31;;;18.97;54.50
34921;BME280;21128;50.016;20.002;2022-07-18T07:21:54;99813.80;;;18.99;54.30
34921;BME280;21128;50.016;20.002;2022-07-18T07:24:28;99811.81;;;19.01;54.45
34921;BME280;21128;50.016;20.002;2022-07-18T07:26:54;99815.42;;;19.08;55.07
34921;BME280;21128;50.016;20.002;2022-07-18T07:29:21;99813.04;;;19.21;54.35
34921;BME280;21128;50.016;20.002;2022-07-18T07:31:55;99814.02;;;19.28;54.38
34921;BME280;21128;50.016;20.002;2022-07-18T07:34:22;99814.52;;;19.24;53.92
34921;BME280;21128;50.016;20.002;2022-07-18T07:36:49;99814.84;;;19.29;54.59
34921;BME280;21128;50.016;20.002;2022-07-18T07:39:15;99818.61;;;19.43;54.92
34921;BME280;21128;50.016;20.002;2022-07-18T07:41:42;99813.86;;;19.61;54.75
34921;BME280;21128;50.016;20.002;2022-07-18T07:44:09;99817.13;;;19.71;53.94
34921;BME280;21128;50.016;20.002;2022-07-18T07:46:36;99821.75;;;19.77;53.99
34921;BME280;21128;50.016;20.002;2022-07-18T07:49:02;99826.78;;;19.95;54.24
34921;BME280;21128;50.016;20.002;2022-07-18T07:51:36;99816.33;;;20.08;53.75
34921;BME280;21128;50.016;20.002;2022-07-18T07:54:16;99819.48;;;20.12;52.49
34921;BME280;21128;50.016;20.002;2022-07-18T07:56:42;99818.09;;;20.16;51.64
34921;BME280;21128;50.016;20.002;2022-07-18T07:59:09;99818.67;;;20.26;51.46
34921;BME280;21128;50.016;20.002;2022-07-18T08:01:36;99821.64;;;20.31;50.73
34921;BME280;21128;50.016;20.002;2022-07-18T08:04:03;99827.09;;;20.38;49.65
34921;BME280;21128;50.016;20.002;2022-07-18T08:06:30;99816.23;;;20.39;49.80
34921;BME280;21128;50.016;20.002;2022-07-18T08:08:56;99831.48;;;20.54;49.46
34921;BME280;21128;50.016;20.002;2022-07-18T08:11:23;99825.38;;;20.60;48.29
34921;BME280;21128;50.016;20.002;2022-07-18T08:13:50;99816.94;;;20.71;48.77
34921;BME280;21128;50.016;20.002;2022-07-18T08:16:24;99810.11;;;20.83;48.10
34921;BME280;21128;50.016;20.002;2022-07-18T08:18:50;99817.02;;;20.92;47.74
34921;BME280;21128;50.016;20.002;2022-07-18T08:21:18;99817.84;;;21.07;48.57
34921;BME280;21128;50.016;20.002;2022-07-18T08:23:47;99814.52;;;21.20;48.03
34921;BME280;21128;50.016;20.002;2022-07-18T08:26:15;99818.58;;;21.31;47.41
34921;BME280;21128;50.016;20.002;2022-07-18T08:28:42;99813.31;;;21.38;46.61
34921;BME280;21128;50.016;20.002;2022-07-18T08:31:15;99803.70;;;21.43;46.33
34921;BME280;21128;50.016;20.002;2022-07-18T08:33:44;99816.95;;;21.51;45.70
34921;BME280;21128;50.016;20.002;2022-07-18T08:36:11;99806.52;;;21.56;46.43
34921;BME280;21128;50.016;20.002;2022-07-18T08:38:39;99792.78;;;21.81;46.45
34921;BME280;21128;50.016;20.002;2022-07-18T08:41:06;99798.70;;;21.98;46.12
34921;BME280;21128;50.016;20.002;2022-07-18T08:43:33;99794.70;;;22.08;45.69
34921;BME280;21128;50.016;20.002;2022-07-18T08:46:04;99790.38;;;22.07;43.20
34921;BME280;21128;50.016;20.002;2022-07-18T08:48:32;99794.87;;;22.07;42.74
34921;BME280;21128;50.016;20.002;2022-07-18T08:51:00;99785.19;;;22.06;42.36
34921;BME280;21128;50.016;20.002;2022-07-18T08:53:28;99788.89;;;22.05;43.02
34921;BME280;21128;50.016;20.002;2022-07-18T08:56:02;99789.01;;;22.18;41.97
34921;BME280;21128;50.016;20.002;2022-07-18T08:58:29;99771.75;;;22.21;41.32
34921;BME280;21128;50.016;20.002;2022-07-18T09:00:56;99781.09;;;22.31;42.44
34921;BME280;21128;50.016;20.002;2022-07-18T09:03:25;99780.44;;;22.57;42.89
34921;BME280;21128;50.016;20.002;2022-07-18T09:06:13;99786.72;;;22.78;42.88
34921;BME280;21128;50.016;20.002;2022-07-18T09:08:58;99785.39;;;22.88;42.59
34921;BME280;21128;50.016;20.002;2022-07-18T09:11:25;99779.08;;;23.09;42.35
34921;BME280;21128;50.016;20.002;2022-07-18T09:13:52;99778.96;;;23.30;42.01
34921;BME280;21128;50.016;20.002;2022-07-18T09:16:20;99784.70;;;23.27;39.15
34921;BME280;21128;50.016;20.002;2022-07-18T09:18:54;99787.18;;;23.22;40.90
34921;BME280;21128;50.016;20.002;2022-07-18T09:21:23;99781.23;;;23.34;39.85
34921;BME280;21128;50.016;20.002;2022-07-18T09:23:52;99780.67;;;23.58;40.52
34921;BME280;21128;50.016;20.002;2022-07-18T09:26:40;99781.14;;;23.75;39.59
34921;BME280;21128;50.016;20.002;2022-07-18T09:29:13;99788.56;;;23.66;38.84
34921;BME280;21128;50.016;20.002;2022-07-18T09:31:52;99786.91;;;23.65;39.54
34921;BME280;21128;50.016;20.002;2022-07-18T09:34:38;99786.53;;;23.81;38.69
34921;BME280;21128;50.016;20.002;2022-07-18T09:37:10;99792.89;;;23.67;39.52
34921;BME280;21128;50.016;20.002;2022-07-18T09:39:37;99790.45;;;23.92;39.73
34921;BME280;21128;50.016;20.002;2022-07-18T09:42:15;99789.42;;;24.00;38.67
34921;BME280;21128;50.016;20.002;2022-07-18T09:44:42;99790.05;;;23.89;38.57
34921;BME280;21128;50.016;20.002;2022-07-18T09:47:09;99783.84;;;23.81;38.62
34921;BME280;21128;50.016;20.002;2022-07-18T09:49:36;99784.45;;;23.83;38.34
34921;BME280;21128;50.016;20.002;2022-07-18T09:52:08;99786.53;;;24.08;38.34
34921;BME280;21128;50.016;20.002;2022-07-18T09:54:49;99782.39;;;24.12;38.64
34921;BME280;21128;50.016;20.002;2022-07-18T09:57:26;99784.27;;;24.31;38.78
34921;BME280;21128;50.016;20.002;2022-07-18T09:59:54;99781.35;;;24.53;38.32
34921;BME280;21128;50.016;20.002;2022-07-18T10:02:22;99769.53;;;24.74;37.59
34921;BME280;21128;50.016;20.002;2022-07-18T10:04:49;99782.34;;;24.71;37.64
34921;BME280;21128;50.016;20.002;2022-07-18T10:07:17;99781.95;;;24.68;37.71
34921;BME280;21128;50.016;20.002;2022-07-18T10:09:45;99772.01;;;24.75;37.98
34921;BME280;21128;50.016;20.002;2022-07-18T10:12:15;99771.57;;;24.78;36.98
34921;BME280;21128;50.016;20.002;2022-07-18T10:14:43;99779.39;;;24.93;37.91
34921;BME280;21128;50.016;20.002;2022-07-18T10:17:12;99767.03;;;25.30;37.22
34921;BME280;21128;50.016;20.002;2022-07-18T10:19:47;99768.70;;;25.63;37.83
34921;BME280;21128;50.016;20.002;2022-07-18T10:22:14;99770.53;;;25.75;36.30
34921;BME280;21128;50.016;20.002;2022-07-18T10:24:49;99768.30;;;25.66;35.64
34921;BME280;21128;50.016;20.002;2022-07-18T10:27:18;99767.32;;;25.53;36.21
34921;BME280;21128;50.016;20.002;2022-07-18T10:30:11;99765.48;;;25.47;35.47
34921;BME280;21128;50.016;20.002;2022-07-18T10:32:47;99764.73;;;25.40;36.00
34921;BME280;21128;50.016;20.002;2022-07-18T10:35:15;99765.48;;;25.47;35.84
34921;BME280;21128;50.016;20.002;2022-07-18T10:37:44;99765.48;;;25.47;36.01
34921;BME280;21128;50.016;20.002;2022-07-18T10:40:25;99761.84;;;25.35;36.13
34921;BME280;21128;50.016;20.002;2022-07-18T10:46:00;99757.03;;;25.82;36.74
34921;BME280;21128;50.016;20.002;2022-07-18T10:53:56;99752.66;;;26.74;35.34
34921;BME280;21128;50.016;20.002;2022-07-18T10:59:20;99744.24;;;27.01;34.39
34921;BME280;21128;50.016;20.002;2022-07-18T11:01:51;99744.92;;;26.78;33.97
34921;BME280;21128;50.016;20.002;2022-07-18T11:09:46;99733.68;;;26.81;34.49
34921;BME280;21128;50.016;20.002;2022-07-18T11:15:04;99741.77;;;26.99;33.98
34921;BME280;21128;50.016;20.002;2022-07-18T11:23:02;99723.79;;;27.11;33.93
34921;BME280;21128;50.016;20.002;2022-07-18T11:25:29;99727.81;;;27.20;33.76
34921;BME280;21128;50.016;20.002;2022-07-18T11:27:57;99717.92;;;27.44;33.46
34921;BME280;21128;50.016;20.002;2022-07-18T11:30:24;99720.78;;;27.61;33.72
34921;BME280;21128;50.016;20.002;2022-07-18T11:32:58;99719.42;;;27.70;33.73
34921;BME280;21128;50.016;20.002;2022-07-18T11:35:25;99720.38;;;27.76;32.79
34921;BME280;21128;50.016;20.002;2022-07-18T11:37:52;99723.17;;;27.69;32.58
34921;BME280;21128;50.016;20.002;2022-07-18T11:40:20;99723.66;;;27.78;33.31
34921;BME280;21128;50.016;20.002;2022-07-18T11:42:48;99719.72;;;27.62;32.17
34921;BME280;21128;50.016;20.002;2022-07-18T11:45:16;99715.90;;;27.40;31.89
34921;BME280;21128;50.016;20.002;2022-07-18T11:47:46;99716.55;;;27.24;32.54
34921;BME280;21128;50.016;20.002;2022-07-18T11:50:35;99718.60;;;27.40;33.03
34921;BME280;21128;50.016;20.002;2022-07-18T11:53:02;99709.26;;;27.54;33.23
34921;BME280;21128;50.016;20.002;2022-07-18T11:55:37;99704.41;;;27.86;33.13
34921;BME280;21128;50.016;20.002;2022-07-18T11:58:13;99702.19;;;28.18;32.11
34921;BME280;21128;50.016;20.002;2022-07-18T12:00:42;99703.59;;;28.32;32.01
34921;BME280;21128;50.016;20.002;2022-07-18T12:05:53;99702.53;;;27.98;32.18
34921;BME280;21128;50.016;20.002;2022-07-18T12:08:33;99706.18;;;28.04;32.24
34921;BME280;21128;50.016;20.002;2022-07-18T12:13:42;99687.62;;;28.19;32.44
34921;BME280;21128;50.016;20.002;2022-07-18T12:18:56;99695.81;;;28.59;31.88
34921;BME280;21128;50.016;20.002;2022-07-18T12:21:24;99694.14;;;28.70;32.42
34921;BME280;21128;50.016;20.002;2022-07-18T12:32:26;99677.27;;;29.20;32.03
34921;BME280;21128;50.016;20.002;2022-07-18T12:35:05;99674.79;;;29.64;31.25
34921;BME280;21128;50.016;20.002;2022-07-18T12:37:32;99669.52;;;29.91;30.71
34921;BME280;21128;50.016;20.002;2022-07-18T12:40:11;99667.45;;;29.98;30.55
34921;BME280;21128;50.016;20.002;2022-07-18T12:42:40;99666.95;;;30.01;31.04
34921;BME280;21128;50.016;20.002;2022-07-18T12:45:09;99668.91;;;30.22;31.19
34921;BME280;21128;50.016;20.002;2022-07-18T12:47:38;99664.62;;;30.26;30.40
34921;BME280;21128;50.016;20.002;2022-07-18T12:50:05;99671.38;;;30.07;29.71
34921;BME280;21128;50.016;20.002;2022-07-18T12:52:33;99659.44;;;29.86;29.81
34921;BME280;21128;50.016;20.002;2022-07-18T12:55:13;99662.14;;;29.86;30.33
34921;BME280;21128;50.016;20.002;2022-07-18T12:57:46;99671.25;;;29.80;30.12
34921;BME280;21128;50.016;20.002;2022-07-18T13:00:13;99661.41;;;29.57;30.09
34921;BME280;21128;50.016;20.002;2022-07-18T13:02:42;99659.83;;;29.44;30.49
34921;BME280;21128;50.016;20.002;2022-07-18T13:05:10;99662.98;;;29.70;30.65
34921;BME280;21128;50.016;20.002;2022-07-18T13:07:37;99656.50;;;29.54;30.18
34921;BME280;21128;50.016;20.002;2022-07-18T13:10:04;99649.56;;;29.47;30.58
34921;BME280;21128;50.016;20.002;2022-07-18T13:12:32;99647.96;;;29.62;30.52
34921;BME280;21128;50.016;20.002;2022-07-18T13:14:59;99643.23;;;29.91;30.58
34921;BME280;21128;50.016;20.002;2022-07-18T13:17:26;99641.83;;;30.06;30.39
34921;BME280;21128;50.016;20.002;2022-07-18T13:19:52;99646.09;;;30.02;29.90
34921;BME280;21128;50.016;20.002;2022-07-18T13:22:19;99631.10;;;29.94;30.15
34921;BME280;21128;50.016;20.002;2022-07-18T13:24:56;99634.28;;;30.08;29.56
34921;BME280;21128;50.016;20.002;2022-07-18T13:27:23;99625.86;;;29.87;29.84
34921;BME280;21128;50.016;20.002;2022-07-18T13:29:50;99631.09;;;30.11;29.65
34921;BME280;21128;50.016;20.002;2022-07-18T13:32:16;99633.86;;;29.99;29.61
34921;BME280;21128;50.016;20.002;2022-07-18T13:34:43;99630.89;;;29.62;29.72
34921;BME280;21128;50.016;20.002;2022-07-18T13:37:10;99630.74;;;29.52;29.63
34921;BME280;21128;50.016;20.002;2022-07-18T13:39:37;99636.94;;;29.35;29.44
34921;BME280;21128;50.016;20.002;2022-07-18T13:42:03;99630.02;;;29.11;29.95
34921;BME280;21128;50.016;20.002;2022-07-18T13:44:31;99634.19;;;29.02;30.29